Accueil
METAR-TAF:

METAR-TAF

Aéroports :

Paderborn-Lippstadt, Allemagne

latitude: 51-37N, longitude: 008-37E, altitude: 213 m

Observation

Le bulletin a été fait il y a 36 minutes, à 06:20 UTC
Vent 8 kt de ouest, variant entre sud/sud-ouest et nord-ouest
Température 18°C
Humidité 73%
Pression 1014 hPa
Visibilité 10 km ou plus
Nuages fragmentés à une hauteur de 2000 ft

METAR: EDLP 230620Z 27008KT 210V320 9999 BKN020 18/13 Q1014

Heure: 08:56 (06:56 UTC)

Prévision

Le bulletin a été fait il y a 1 heure et 56 minutes, à 05:00 UTC
Prévision valable du 23 à 06 UTC au 24 à 06 UTC
Vent 10 kt de ouest
Visibilité 10 km ou plus
Nuages fragmentés à une hauteur de 3000 ft
Evoluant progressivement
du 23 à 17 UTC au 23 à 20 UTC
Vent 5 kt de ouest/sud-ouest
Evoluant progressivement
du 24 à 01 UTC au 24 à 04 UTC
Vent 11 kt de ouest/sud-ouest

TAF: EDLP 230500Z 2306/2406 26010KT 9999 BKN030 BECMG 2317/2320 24005KT BECMG 2401/2404 24011KT

Observations et prévisions météorologiques de plus de 4000 aéroports (messages METAR et TAF).

Les stations disponibles sont représentées par des disques jaunes et rouges sur la carte.

Passer la souris dessus pour voir le nom de la station.

Cliquer dessus pour voir les observations et prévisions météorologiques.

Pour changer de carte: cliquez sur les boutons verts avec une croix noire pour zoomer, sur le bouton vert avec un tiret pour effectuer un zoom arrière, ou sur les flèches vertes pour les cartes adjacentes.


METAR-TAF: